Time;durP1;ratioP1;P1;durP2;ratioP2;P2;SDS_P1;SDS_P2;PMS_P1;PMS_P2;Temp;Humidity;BMP_temperature;BMP_pressure;BME280_temperature;BME280_humidity;BME280_pressure;Samples;Min_cycle;Max_cycle;Signal;HPM_P1;HPM_P2
2023/01/28 00:01:20;;;;;;;3.78;3.15;;;;;;;;;;5014760;28;20058;-76
2023/01/28 00:03:51;;;;;;;4.53;2.92;;;;;;;;;;5015360;28;20042;-76
2023/01/28 00:06:18;;;;;;;3.78;2.90;;;;;;;;;;5015059;28;20049;-76
2023/01/28 00:08:44;;;;;;;2.90;2.35;;;;;;;;;;5014763;28;20041;-76
2023/01/28 00:11:11;;;;;;;3.58;2.50;;;;;;;;;;5019646;28;20050;-76
2023/01/28 00:13:38;;;;;;;2.55;2.30;;;;;;;;;;5013837;28;20488;-76
2023/01/28 00:16:05;;;;;;;5.55;2.63;;;;;;;;;;5014333;28;20489;-75
2023/01/28 00:18:32;;;;;;;3.15;2.50;;;;;;;;;;5026312;28;20054;-75
2023/01/28 00:21:06;;;;;;;3.15;2.85;;;;;;;;;;5013989;28;20058;-75
2023/01/28 00:23:33;;;;;;;3.25;2.55;;;;;;;;;;5027373;28;20048;-76
2023/01/28 00:26:00;;;;;;;3.42;2.78;;;;;;;;;;5029474;28;20045;-76
2023/01/28 00:28:26;;;;;;;3.67;2.70;;;;;;;;;;5014418;28;20054;-76
2023/01/28 00:30:52;;;;;;;3.90;2.70;;;;;;;;;;5033852;28;20064;-76
2023/01/28 00:33:18;;;;;;;3.38;2.65;;;;;;;;;;5032826;28;20068;-76
2023/01/28 00:35:45;;;;;;;2.72;2.50;;;;;;;;;;5031098;28;20128;-76
2023/01/28 00:38:11;;;;;;;3.20;2.50;;;;;;;;;;5033637;28;20049;-75
2023/01/28 00:40:37;;;;;;;3.50;2.50;;;;;;;;;;5027101;28;20045;-75
2023/01/28 00:43:03;;;;;;;3.03;2.72;;;;;;;;;;5019508;28;20045;-76
2023/01/28 00:45:29;;;;;;;4.22;3.15;;;;;;;;;;5016749;28;20049;-75
2023/01/28 00:47:56;;;;;;;3.42;3.13;;;;;;;;;;5012819;28;20103;-75
2023/01/28 00:50:22;;;;;;;4.30;3.50;;;;;;;;;;5014473;28;20056;-75
2023/01/28 00:52:48;;;;;;;3.63;3.13;;;;;;;;;;5013278;28;20068;-76
2023/01/28 00:55:14;;;;;;;3.72;3.05;;;;;;;;;;5021512;28;20045;-76
2023/01/28 00:57:40;;;;;;;4.60;3.22;;;;;;;;;;5026020;28;20045;-76
2023/01/28 01:00:07;;;;;;;3.65;3.17;;;;;;;;;;5021891;28;20523;-76
2023/01/28 01:02:33;;;;;;;4.10;3.28;;;;;;;;;;5015595;28;20037;-75
2023/01/28 01:04:59;;;;;;;3.53;3.20;;;;;;;;;;5014447;28;20093;-76
2023/01/28 01:07:42;;;;;;;4.57;3.13;;;;;;;;;;5025977;28;20060;-76
2023/01/28 01:10:14;;;;;;;4.60;3.05;;;;;;;;;;5029714;28;20053;-75
2023/01/28 01:12:40;;;;;;;3.65;3.17;;;;;;;;;;5033686;28;20077;-75
2023/01/28 01:15:09;;;;;;;4.53;3.25;;;;;;;;;;5021603;28;20125;-76
2023/01/28 01:17:36;;;;;;;3.55;3.25;;;;;;;;;;5029128;28;20077;-75
2023/01/28 01:20:03;;;;;;;3.55;3.25;;;;;;;;;;5025895;28;20085;-76
2023/01/28 01:22:32;;;;;;;4.15;3.67;;;;;;;;;;5026933;28;20119;-76
2023/01/28 01:24:58;;;;;;;5.22;3.47;;;;;;;;;;5014745;28;20048;-75
2023/01/28 01:27:24;;;;;;;3.70;3.30;;;;;;;;;;5012131;28;20050;-76
2023/01/28 01:29:50;;;;;;;4.22;3.08;;;;;;;;;;5015438;28;20046;-76
2023/01/28 01:32:17;;;;;;;3.42;3.13;;;;;;;;;;5020953;28;20052;-76
2023/01/28 01:34:43;;;;;;;3.70;3.33;;;;;;;;;;5021907;28;20046;-76
2023/01/28 01:37:10;;;;;;;4.68;3.25;;;;;;;;;;5021072;28;20061;-76
2023/01/28 01:39:36;;;;;;;4.18;3.58;;;;;;;;;;5031029;28;20049;-76
2023/01/28 01:42:02;;;;;;;4.43;3.70;;;;;;;;;;5028435;28;20050;-76
2023/01/28 01:44:47;;;;;;;4.57;3.85;;;;;;;;;;5015486;28;20046;-76
2023/01/28 01:47:13;;;;;;;4.00;3.40;;;;;;;;;;5019563;28;20441;-76
2023/01/28 01:49:40;;;;;;;5.47;3.58;;;;;;;;;;5016838;28;20041;-76
2023/01/28 01:52:08;;;;;;;6.53;4.00;;;;;;;;;;5032764;28;20428;-76
2023/01/28 01:54:36;;;;;;;4.75;3.90;;;;;;;;;;5032986;28;20131;-76
2023/01/28 01:57:02;;;;;;;4.43;3.95;;;;;;;;;;5013733;28;20052;-76
2023/01/28 01:59:29;;;;;;;5.15;3.88;;;;;;;;;;5013042;28;20042;-76
2023/01/28 02:01:55;;;;;;;5.50;4.00;;;;;;;;;;5013524;28;20485;-76
2023/01/28 02:04:26;;;;;;;4.28;3.47;;;;;;;;;;5042332;28;20060;-76
2023/01/28 02:06:53;;;;;;;6.00;3.50;;;;;;;;;;5032724;28;20055;-76
2023/01/28 02:09:22;;;;;;;4.70;3.90;;;;;;;;;;5045260;28;20050;-76
2023/01/28 02:11:48;;;;;;;4.45;3.83;;;;;;;;;;5011693;28;20046;-76
2023/01/28 02:14:14;;;;;;;5.55;4.05;;;;;;;;;;5015387;28;20042;-76
2023/01/28 02:16:40;;;;;;;4.30;3.65;;;;;;;;;;5032905;28;20045;-76
2023/01/28 02:19:07;;;;;;;6.05;4.25;;;;;;;;;;5033011;28;20041;-75
2023/01/28 02:21:42;;;;;;;4.88;3.75;;;;;;;;;;5029750;28;20099;-76
2023/01/28 02:24:08;;;;;;;5.53;3.50;;;;;;;;;;5019335;28;20053;-75
2023/01/28 02:26:40;;;;;;;5.88;4.20;;;;;;;;;;5018800;28;20101;-75
2023/01/28 02:29:09;;;;;;;6.45;4.30;;;;;;;;;;5045758;28;20125;-76
2023/01/28 02:31:42;;;;;;;7.70;4.15;;;;;;;;;;5027848;28;20038;-76
2023/01/28 02:34:19;;;;;;;4.65;3.90;;;;;;;;;;5019376;28;20133;-75
2023/01/28 02:36:48;;;;;;;5.88;3.40;;;;;;;;;;5036326;28;20046;-75
2023/01/28 02:39:37;;;;;;;4.90;3.70;;;;;;;;;;5035625;28;20546;-76
2023/01/28 02:42:16;;;;;;;5.65;3.78;;;;;;;;;;5009211;28;20050;-75
2023/01/28 02:44:42;;;;;;;7.60;4.55;;;;;;;;;;5017553;28;20053;-75
2023/01/28 02:49:59;;;;;;;12.60;5.78;;;;;;;;;;5021863;28;20046;-76
2023/01/28 02:56:18;;;;;;;8.93;4.22;;;;;;;;;;4902995;29;20052;-75
2023/01/28 02:58:48;;;;;;;5.43;4.10;;;;;;;;;;4893415;29;20063;-76
2023/01/28 03:01:29;;;;;;;7.50;3.97;;;;;;;;;;4917170;29;20415;-76
2023/01/28 03:03:58;;;;;;;5.18;4.30;;;;;;;;;;4917015;29;20170;-75
2023/01/28 03:06:28;;;;;;;6.30;3.83;;;;;;;;;;4916912;29;20060;-76
2023/01/28 03:37:14;;;;;;;5.15;3.80;;;;;;;;;;4974381;28;20050;-75
2023/01/28 03:39:40;;;;;;;7.00;3.97;;;;;;;;;;4973354;28;20074;-76
2023/01/28 03:42:08;;;;;;;4.72;3.90;;;;;;;;;;4974031;28;20134;-76
2023/01/28 03:44:52;;;;;;;4.40;3.75;;;;;;;;;;4973727;28;20034;-76
2023/01/28 03:47:28;;;;;;;5.18;4.05;;;;;;;;;;4974062;28;20054;-76
2023/01/28 03:49:55;;;;;;;5.70;4.50;;;;;;;;;;4972260;28;20053;-75
2023/01/28 03:52:25;;;;;;;4.70;3.92;;;;;;;;;;4973879;28;20098;-76
2023/01/28 03:54:51;;;;;;;5.78;4.57;;;;;;;;;;4997960;28;20058;-76
2023/01/28 03:57:19;;;;;;;5.90;4.20;;;;;;;;;;5030380;28;20508;-76
2023/01/28 03:59:45;;;;;;;5.55;4.20;;;;;;;;;;5014897;28;20469;-76
2023/01/28 04:02:12;;;;;;;5.55;4.55;;;;;;;;;;5014874;28;20046;-76
2023/01/28 04:04:38;;;;;;;5.40;4.30;;;;;;;;;;5021104;28;20041;-75
2023/01/28 04:07:07;;;;;;;5.20;4.15;;;;;;;;;;5022122;28;20084;-75
2023/01/28 04:09:34;;;;;;;5.47;4.25;;;;;;;;;;5025189;28;20121;-75
2023/01/28 04:12:00;;;;;;;5.50;4.45;;;;;;;;;;5033748;28;20071;-75
2023/01/28 04:14:26;;;;;;;5.93;3.97;;;;;;;;;;5034118;28;20041;-75
2023/01/28 04:16:55;;;;;;;5.07;4.10;;;;;;;;;;5033912;28;20057;-75
2023/01/28 04:19:21;;;;;;;5.30;4.28;;;;;;;;;;5033525;28;20052;-75
2023/01/28 04:21:48;;;;;;;4.90;3.97;;;;;;;;;;5024947;28;20153;-75
2023/01/28 04:24:14;;;;;;;5.97;4.20;;;;;;;;;;5014876;28;20046;-75
2023/01/28 04:26:40;;;;;;;6.22;4.63;;;;;;;;;;5014308;28;20497;-75
2023/01/28 04:29:06;;;;;;;5.32;4.32;;;;;;;;;;5029055;28;20409;-75
2023/01/28 04:31:32;;;;;;;5.43;4.32;;;;;;;;;;5026494;28;20466;-75
2023/01/28 04:33:59;;;;;;;5.10;4.15;;;;;;;;;;5024915;28;20511;-75
2023/01/28 04:36:25;;;;;;;4.68;3.92;;;;;;;;;;5027859;28;20046;-75
2023/01/28 04:38:51;;;;;;;6.13;4.18;;;;;;;;;;5015539;28;20496;-76
2023/01/28 04:41:17;;;;;;;5.18;4.05;;;;;;;;;;5025434;28;20033;-76
2023/01/28 04:43:43;;;;;;;4.90;4.00;;;;;;;;;;5024508;28;20124;-76
2023/01/28 04:46:09;;;;;;;5.63;4.55;;;;;;;;;;5023939;28;20417;-76
2023/01/28 04:48:35;;;;;;;6.20;4.35;;;;;;;;;;5018659;28;20088;-76
2023/01/28 04:51:02;;;;;;;5.00;4.38;;;;;;;;;;5014227;28;20053;-76
2023/01/28 04:53:29;;;;;;;6.25;4.75;;;;;;;;;;5012702;28;20050;-76
2023/01/28 04:55:55;;;;;;;5.28;4.22;;;;;;;;;;5014351;28;20100;-76
2023/01/28 04:58:21;;;;;;;6.30;4.40;;;;;;;;;;5014851;28;20046;-76
2023/01/28 05:00:54;;;;;;;5.35;4.40;;;;;;;;;;5021854;28;20057;-76
2023/01/28 05:03:20;;;;;;;5.97;4.53;;;;;;;;;;5013634;28;20042;-76
2023/01/28 05:05:46;;;;;;;6.40;4.60;;;;;;;;;;5029128;28;20053;-76
2023/01/28 05:08:12;;;;;;;6.35;4.55;;;;;;;;;;5013994;28;21061;-76
2023/01/28 05:10:39;;;;;;;6.45;4.38;;;;;;;;;;5012286;28;20120;-76
2023/01/28 05:13:05;;;;;;;5.25;4.03;;;;;;;;;;5023480;28;20084;-76
2023/01/28 05:15:31;;;;;;;7.13;4.35;;;;;;;;;;5017980;28;20038;-76
2023/01/28 05:17:58;;;;;;;6.28;4.60;;;;;;;;;;5032351;28;20064;-76
2023/01/28 05:20:25;;;;;;;5.45;4.22;;;;;;;;;;5004740;28;20054;-76
2023/01/28 05:22:51;;;;;;;5.55;4.00;;;;;;;;;;5013864;28;20045;-76
2023/01/28 05:25:17;;;;;;;5.75;4.25;;;;;;;;;;5016664;28;20041;-76
2023/01/28 05:27:43;;;;;;;7.00;4.75;;;;;;;;;;5017617;28;20096;-76
2023/01/28 05:30:09;;;;;;;5.53;4.35;;;;;;;;;;5013946;28;20062;-76
2023/01/28 05:32:35;;;;;;;5.50;4.22;;;;;;;;;;5017432;28;20502;-76
2023/01/28 05:35:01;;;;;;;5.93;4.47;;;;;;;;;;5030550;28;20125;-76
2023/01/28 05:37:27;;;;;;;6.57;4.30;;;;;;;;;;5031813;28;20176;-76
2023/01/28 05:39:53;;;;;;;7.65;4.57;;;;;;;;;;5012413;28;20124;-76
2023/01/28 05:42:21;;;;;;;6.05;4.70;;;;;;;;;;5016837;28;20050;-76
2023/01/28 05:44:47;;;;;;;5.75;4.35;;;;;;;;;;5015702;28;20041;-75
2023/01/28 05:47:13;;;;;;;7.57;5.00;;;;;;;;;;5013557;28;20149;-76
2023/01/28 05:49:39;;;;;;;6.20;4.78;;;;;;;;;;5019516;28;20095;-75
2023/01/28 05:52:05;;;;;;;5.57;4.43;;;;;;;;;;5017504;28;20075;-76
2023/01/28 05:54:31;;;;;;;7.22;4.88;;;;;;;;;;5032930;28;20045;-76
2023/01/28 05:56:57;;;;;;;6.63;5.05;;;;;;;;;;5026341;28;20042;-76
2023/01/28 05:59:23;;;;;;;5.80;4.70;;;;;;;;;;5021567;28;20507;-75
2023/01/28 06:01:49;;;;;;;6.93;4.63;;;;;;;;;;5025383;28;20115;-76
2023/01/28 06:04:17;;;;;;;5.95;4.55;;;;;;;;;;5032785;28;20049;-75
2023/01/28 06:06:44;;;;;;;6.50;4.75;;;;;;;;;;5023525;28;20061;-76
2023/01/28 06:09:10;;;;;;;7.03;5.18;;;;;;;;;;5023593;28;20044;-76
2023/01/28 06:11:36;;;;;;;7.05;5.22;;;;;;;;;;5036512;28;20041;-75
2023/01/28 06:14:02;;;;;;;6.90;5.20;;;;;;;;;;5023995;28;20432;-75
2023/01/28 06:16:28;;;;;;;6.32;4.93;;;;;;;;;;5017048;28;20113;-75
2023/01/28 06:18:54;;;;;;;7.38;5.68;;;;;;;;;;5017013;28;20133;-75
2023/01/28 06:21:20;;;;;;;7.30;5.15;;;;;;;;;;5025682;28;20081;-78
2023/01/28 06:23:46;;;;;;;6.43;5.03;;;;;;;;;;5001355;28;20468;-75
2023/01/28 06:26:12;;;;;;;8.50;5.78;;;;;;;;;;5016321;28;20428;-76
2023/01/28 06:28:38;;;;;;;9.27;6.07;;;;;;;;;;5025573;28;20053;-75
2023/01/28 06:31:04;;;;;;;7.53;4.95;;;;;;;;;;5017494;28;20048;-75
2023/01/28 06:33:31;;;;;;;7.20;5.72;;;;;;;;;;5035281;28;20442;-75
2023/01/28 06:35:57;;;;;;;10.38;5.75;;;;;;;;;;5017381;28;20473;-76
2023/01/28 06:38:23;;;;;;;10.13;6.47;;;;;;;;;;5024671;28;20053;-75
2023/01/28 06:40:54;;;;;;;7.13;5.60;;;;;;;;;;5017170;28;20046;-75
2023/01/28 06:43:26;;;;;;;10.65;6.38;;;;;;;;;;5024281;28;20042;-75
2023/01/28 06:45:52;;;;;;;11.43;6.50;;;;;;;;;;5016791;28;20050;-75
2023/01/28 06:48:18;;;;;;;9.82;6.65;;;;;;;;;;5026508;28;20048;-75
2023/01/28 06:50:46;;;;;;;11.00;6.80;;;;;;;;;;5016623;28;20124;-76
2023/01/28 06:53:12;;;;;;;8.82;6.32;;;;;;;;;;5016210;28;20057;-76
2023/01/28 06:55:38;;;;;;;7.97;6.53;;;;;;;;;;5027140;28;20140;-75
2023/01/28 06:58:04;;;;;;;9.38;7.03;;;;;;;;;;5051398;28;20052;-75
2023/01/28 07:00:30;;;;;;;9.55;7.43;;;;;;;;;;5034659;28;20132;-75
2023/01/28 07:02:56;;;;;;;10.43;7.43;;;;;;;;;;5034523;28;20041;-77
2023/01/28 07:05:23;;;;;;;9.98;7.05;;;;;;;;;;5018361;28;20061;-76
2023/01/28 07:07:49;;;;;;;9.98;7.38;;;;;;;;;;5030731;28;20042;-75
2023/01/28 07:10:15;;;;;;;8.88;6.60;;;;;;;;;;5016806;28;20054;-75
2023/01/28 07:12:44;;;;;;;10.43;7.13;;;;;;;;;;5015421;28;20038;-75
2023/01/28 07:15:10;;;;;;;11.27;7.63;;;;;;;;;;5015809;28;20072;-75
2023/01/28 07:17:43;;;;;;;10.93;7.50;;;;;;;;;;5024178;28;20052;-75
2023/01/28 07:20:11;;;;;;;11.68;7.15;;;;;;;;;;5020766;28;20546;-76
2023/01/28 07:22:38;;;;;;;10.13;7.72;;;;;;;;;;5020980;28;20061;-75
2023/01/28 07:25:04;;;;;;;11.43;7.63;;;;;;;;;;5020694;28;20465;-75
2023/01/28 07:27:33;;;;;;;12.85;8.73;;;;;;;;;;5013795;28;20052;-75
2023/01/28 07:30:00;;;;;;;10.38;8.00;;;;;;;;;;5015336;28;20500;-76
2023/01/28 07:32:28;;;;;;;10.85;8.05;;;;;;;;;;5018816;28;20053;-75
2023/01/28 07:34:54;;;;;;;11.27;8.07;;;;;;;;;;5024125;28;20353;-76
2023/01/28 07:37:20;;;;;;;11.85;8.52;;;;;;;;;;5035381;28;20096;-76
2023/01/28 07:39:47;;;;;;;11.93;7.85;;;;;;;;;;5015984;28;20081;-75
2023/01/28 07:42:13;;;;;;;10.52;7.70;;;;;;;;;;5017956;28;20049;-76
2023/01/28 07:44:39;;;;;;;12.07;8.50;;;;;;;;;;5039516;28;20076;-75
2023/01/28 07:47:05;;;;;;;11.73;7.93;;;;;;;;;;5032858;28;20049;-76
2023/01/28 07:49:33;;;;;;;11.57;8.40;;;;;;;;;;5031676;28;20054;-76
2023/01/28 07:51:59;;;;;;;11.20;8.32;;;;;;;;;;5021262;28;20049;-75
2023/01/28 07:54:25;;;;;;;12.13;8.75;;;;;;;;;;5025319;28;20144;-76
2023/01/28 07:56:51;;;;;;;12.80;8.68;;;;;;;;;;5032330;28;20076;-76
2023/01/28 07:59:18;;;;;;;12.63;8.80;;;;;;;;;;5034961;28;20102;-76
2023/01/28 08:01:44;;;;;;;11.05;8.25;;;;;;;;;;5018013;28;20054;-76
2023/01/28 08:04:10;;;;;;;12.13;8.57;;;;;;;;;;5045656;28;20053;-76
2023/01/28 08:06:36;;;;;;;11.77;9.13;;;;;;;;;;5034615;28;20052;-76
2023/01/28 08:09:04;;;;;;;12.40;8.43;;;;;;;;;;5020256;28;20513;-76
2023/01/28 08:11:31;;;;;;;12.90;9.13;;;;;;;;;;5031265;28;20120;-76
2023/01/28 08:13:57;;;;;;;12.77;8.98;;;;;;;;;;5034359;28;20045;-76
2023/01/28 08:16:23;;;;;;;12.88;9.13;;;;;;;;;;5022274;28;20045;-76
2023/01/28 08:18:49;;;;;;;12.98;9.10;;;;;;;;;;5029910;28;20049;-75
2023/01/28 08:21:15;;;;;;;12.80;9.30;;;;;;;;;;5021009;28;20062;-75
2023/01/28 08:23:41;;;;;;;11.95;8.18;;;;;;;;;;5024696;28;20124;-75
2023/01/28 08:26:08;;;;;;;13.55;9.95;;;;;;;;;;5031186;28;20084;-75
2023/01/28 08:28:34;;;;;;;14.02;9.85;;;;;;;;;;5025686;28;20074;-75
2023/01/28 08:31:00;;;;;;;13.73;9.95;;;;;;;;;;5030283;28;20381;-76
2023/01/28 08:33:26;;;;;;;13.38;9.65;;;;;;;;;;5020044;28;20472;-75
2023/01/28 08:35:52;;;;;;;13.00;9.38;;;;;;;;;;5019516;28;20480;-75
2023/01/28 08:38:19;;;;;;;11.20;8.23;;;;;;;;;;5016701;28;20060;-80
2023/01/28 08:40:45;;;;;;;14.02;8.73;;;;;;;;;;5025351;28;20085;-75
2023/01/28 08:43:11;;;;;;;12.10;9.27;;;;;;;;;;5018146;28;20390;-75
2023/01/28 08:45:38;;;;;;;12.77;9.05;;;;;;;;;;5015355;28;20093;-75
2023/01/28 08:48:05;;;;;;;12.98;8.93;;;;;;;;;;5014218;28;20073;-76
2023/01/28 08:50:32;;;;;;;14.23;9.27;;;;;;;;;;5015093;28;20443;-76
2023/01/28 08:53:03;;;;;;;13.07;9.82;;;;;;;;;;5027745;28;20392;-75
2023/01/28 08:55:29;;;;;;;11.00;8.52;;;;;;;;;;5024419;28;20074;-75
2023/01/28 08:57:56;;;;;;;11.98;8.48;;;;;;;;;;5012505;28;20042;-76
2023/01/28 09:00:22;;;;;;;12.13;8.77;;;;;;;;;;5025858;28;20049;-78
2023/01/28 09:02:51;;;;;;;12.75;9.20;;;;;;;;;;5019786;28;20044;-76
2023/01/28 09:05:18;;;;;;;11.52;8.45;;;;;;;;;;5021573;28;20050;-76
2023/01/28 09:07:44;;;;;;;12.63;9.15;;;;;;;;;;5014125;28;20041;-75
2023/01/28 09:10:10;;;;;;;10.45;8.23;;;;;;;;;;5017000;28;20056;-75
2023/01/28 09:12:36;;;;;;;13.15;9.23;;;;;;;;;;5015715;28;20088;-79
2023/01/28 09:15:02;;;;;;;13.57;9.27;;;;;;;;;;5013137;28;20046;-76
2023/01/28 09:17:28;;;;;;;13.07;9.10;;;;;;;;;;5020597;28;20045;-76
2023/01/28 09:19:54;;;;;;;13.38;9.13;;;;;;;;;;5025500;28;20096;-76
2023/01/28 09:22:21;;;;;;;13.80;8.55;;;;;;;;;;5020875;28;20049;-76
2023/01/28 09:24:47;;;;;;;10.48;8.35;;;;;;;;;;5022254;28;20121;-78
2023/01/28 09:27:13;;;;;;;12.55;9.38;;;;;;;;;;5028171;28;20458;-77
2023/01/28 09:29:39;;;;;;;12.77;10.35;;;;;;;;;;5029923;28;20476;-76
2023/01/28 09:32:06;;;;;;;11.30;8.35;;;;;;;;;;5024324;28;20045;-76
2023/01/28 09:34:32;;;;;;;11.52;8.00;;;;;;;;;;5034918;28;20049;-75
2023/01/28 09:36:58;;;;;;;11.52;8.27;;;;;;;;;;5021551;28;20045;-76
2023/01/28 09:39:27;;;;;;;11.70;8.48;;;;;;;;;;5026751;28;20050;-76
2023/01/28 09:42:12;;;;;;;11.30;7.35;;;;;;;;;;5018129;28;20060;-76
2023/01/28 09:44:52;;;;;;;11.77;8.20;;;;;;;;;;5023266;28;20772;-79
2023/01/28 09:47:31;;;;;;;11.18;8.00;;;;;;;;;;5023628;28;20041;-76
2023/01/28 09:49:58;;;;;;;10.10;7.47;;;;;;;;;;5016872;28;20049;-76
2023/01/28 09:52:26;;;;;;;11.73;8.25;;;;;;;;;;5037085;28;20120;-75
2023/01/28 09:54:59;;;;;;;10.95;8.55;;;;;;;;;;5031906;28;20080;-75
2023/01/28 09:57:27;;;;;;;13.82;10.13;;;;;;;;;;5018122;28;20049;-79
2023/01/28 09:59:53;;;;;;;12.20;10.18;;;;;;;;;;5033976;28;20049;-77
2023/01/28 10:02:28;;;;;;;9.57;6.80;;;;;;;;;;5025664;28;20050;-76
2023/01/28 10:05:13;;;;;;;10.65;6.57;;;;;;;;;;5017774;28;20050;-77
2023/01/28 10:07:48;;;;;;;10.63;6.47;;;;;;;;;;5020071;28;20045;-77
2023/01/28 10:10:21;;;;;;;10.30;6.85;;;;;;;;;;5017575;28;20382;-79
2023/01/28 10:13:10;;;;;;;10.95;7.00;;;;;;;;;;5032245;28;20044;-77
2023/01/28 10:15:56;;;;;;;10.27;6.80;;;;;;;;;;5035776;28;20124;-77
2023/01/28 10:18:32;;;;;;;8.30;5.90;;;;;;;;;;5036266;28;20129;-76
2023/01/28 10:21:02;;;;;;;10.10;7.50;;;;;;;;;;5016565;28;20416;-76
2023/01/28 10:23:37;;;;;;;12.90;9.00;;;;;;;;;;5016419;28;20038;-76
2023/01/28 10:26:05;;;;;;;12.85;9.77;;;;;;;;;;5017101;28;20061;-77
2023/01/28 10:28:33;;;;;;;13.15;9.20;;;;;;;;;;5016832;28;20385;-76
2023/01/28 10:30:59;;;;;;;9.65;7.40;;;;;;;;;;5016289;28;20049;-80
2023/01/28 10:33:28;;;;;;;10.13;7.75;;;;;;;;;;5029391;28;20404;-77
2023/01/28 10:35:55;;;;;;;9.65;6.97;;;;;;;;;;5018165;28;20081;-76
2023/01/28 10:38:22;;;;;;;10.55;6.47;;;;;;;;;;5018559;28;20042;-78
2023/01/28 10:40:48;;;;;;;7.45;5.47;;;;;;;;;;5017167;28;20038;-78
2023/01/28 10:43:20;;;;;;;7.47;5.55;;;;;;;;;;5017595;28;20089;-77
2023/01/28 10:45:46;;;;;;;8.57;6.00;;;;;;;;;;5028014;28;20069;-77
2023/01/28 10:48:33;;;;;;;7.72;5.85;;;;;;;;;;5018421;28;20053;-77
2023/01/28 10:51:03;;;;;;;8.50;6.07;;;;;;;;;;5038857;28;20478;-77
2023/01/28 10:53:43;;;;;;;8.93;5.93;;;;;;;;;;5042767;28;20049;-77
2023/01/28 10:56:11;;;;;;;9.32;6.38;;;;;;;;;;5045213;28;20128;-77
2023/01/28 10:58:47;;;;;;;10.95;6.22;;;;;;;;;;5031432;28;20500;-77
2023/01/28 11:01:13;;;;;;;;;;;;;;;;;;5037227;28;20073;-78
2023/01/28 11:03:40;;;;;;;9.97;6.37;;;;;;;;;;5034921;28;20019;-77
2023/01/28 11:06:22;;;;;;;7.95;6.13;;;;;;;;;;5016234;28;20042;-78
2023/01/28 11:08:48;;;;;;;8.65;5.95;;;;;;;;;;5014821;28;20073;-78
2023/01/28 11:11:15;;;;;;;7.90;6.22;;;;;;;;;;5016616;28;20042;-77
2023/01/28 11:13:49;;;;;;;7.47;5.43;;;;;;;;;;5014409;28;20128;-77
2023/01/28 11:16:17;;;;;;;9.40;6.15;;;;;;;;;;5016106;28;20386;-78
2023/01/28 11:18:53;;;;;;;8.43;5.90;;;;;;;;;;5016110;28;20492;-78
2023/01/28 11:21:21;;;;;;;9.25;5.72;;;;;;;;;;5020472;28;20045;-77
2023/01/28 11:23:52;;;;;;;8.55;5.35;;;;;;;;;;5030901;28;20042;-78
2023/01/28 11:26:21;;;;;;;8.50;5.45;;;;;;;;;;5015434;28;20137;-78
2023/01/28 11:28:47;;;;;;;8.23;6.07;;;;;;;;;;5015525;28;20085;-77
2023/01/28 11:31:14;;;;;;;7.57;5.72;;;;;;;;;;5015249;28;20523;-77
2023/01/28 11:33:45;;;;;;;9.80;6.28;;;;;;;;;;5033610;28;20050;-77
2023/01/28 11:36:12;;;;;;;9.13;5.90;;;;;;;;;;5009179;28;20448;-76
2023/01/28 11:38:46;;;;;;;8.57;6.07;;;;;;;;;;5019648;28;20527;-77
2023/01/28 11:41:14;;;;;;;9.73;6.28;;;;;;;;;;5015797;28;20046;-80
2023/01/28 11:43:40;;;;;;;11.32;6.43;;;;;;;;;;5025341;28;20041;-79
2023/01/28 11:46:20;;;;;;;10.02;5.75;;;;;;;;;;5034621;28;20045;-76
2023/01/28 11:49:06;;;;;;;8.93;5.75;;;;;;;;;;5022979;28;20049;-77
2023/01/28 11:51:32;;;;;;;;;;;;;;;;;;5029480;28;20072;-77
2023/01/28 11:53:58;;;;;;;7.90;5.70;;;;;;;;;;5025750;28;20295;-77
2023/01/28 11:56:31;;;;;;;8.75;5.13;;;;;;;;;;5032171;28;20053;-77
2023/01/28 11:59:17;;;;;;;8.35;5.03;;;;;;;;;;5032657;28;20124;-77
2023/01/28 12:01:43;;;;;;;9.75;5.82;;;;;;;;;;5032616;28;20125;-77
2023/01/28 12:04:28;;;;;;;12.15;6.18;;;;;;;;;;5031009;28;20156;-77
2023/01/28 12:07:06;;;;;;;8.60;5.43;;;;;;;;;;5033396;28;20107;-77
2023/01/28 12:09:45;;;;;;;9.60;5.75;;;;;;;;;;5017418;28;20129;-77
2023/01/28 12:12:20;;;;;;;7.60;4.95;;;;;;;;;;5033690;28;20528;-77
2023/01/28 12:15:02;;;;;;;8.50;5.15;;;;;;;;;;5034650;28;20057;-77
2023/01/28 12:17:46;;;;;;;8.35;4.32;;;;;;;;;;5023733;28;20049;-77
2023/01/28 12:20:30;;;;;;;7.35;4.82;;;;;;;;;;5014897;28;20061;-77
2023/01/28 12:23:14;;;;;;;5.90;4.45;;;;;;;;;;4996673;28;20091;-77
2023/01/28 12:25:47;;;;;;;7.47;4.30;;;;;;;;;;5013140;28;20088;-77
2023/01/28 12:28:16;;;;;;;7.70;4.88;;;;;;;;;;5014688;28;20038;-77
2023/01/28 12:30:54;;;;;;;8.38;4.63;;;;;;;;;;5014498;28;20057;-78
2023/01/28 12:33:23;;;;;;;7.38;4.72;;;;;;;;;;5027729;28;20054;-77
2023/01/28 12:35:54;;;;;;;8.63;5.82;;;;;;;;;;5033801;28;20049;-77
2023/01/28 12:38:29;;;;;;;8.60;4.88;;;;;;;;;;5032958;28;20089;-77
2023/01/28 12:40:58;;;;;;;8.18;4.60;;;;;;;;;;5033172;28;20102;-77
2023/01/28 12:43:29;;;;;;;6.03;4.32;;;;;;;;;;5024662;28;20050;-78
2023/01/28 12:45:58;;;;;;;6.90;4.20;;;;;;;;;;5014374;28;20550;-77
2023/01/28 12:48:50;;;;;;;8.93;4.10;;;;;;;;;;5013130;28;20058;-77
2023/01/28 12:51:20;;;;;;;8.40;4.38;;;;;;;;;;5011509;28;20050;-77
2023/01/28 12:53:52;;;;;;;6.60;4.20;;;;;;;;;;5014557;28;20395;-77
2023/01/28 12:56:36;;;;;;;7.25;4.55;;;;;;;;;;5018135;28;20065;-77
2023/01/28 12:59:18;;;;;;;5.65;4.10;;;;;;;;;;5013668;28;20049;-77
2023/01/28 13:02:03;;;;;;;7.68;4.18;;;;;;;;;;5017001;28;20053;-77
2023/01/28 13:04:33;;;;;;;4.15;2.97;;;;;;;;;;5033449;28;20045;-77
2023/01/28 13:07:03;;;;;;;5.53;2.88;;;;;;;;;;5033077;28;20052;-77
2023/01/28 13:09:29;;;;;;;5.78;3.00;;;;;;;;;;5049423;28;20548;-77
2023/01/28 13:11:57;;;;;;;9.77;3.80;;;;;;;;;;5021624;28;20041;-77
2023/01/28 13:14:29;;;;;;;4.65;3.13;;;;;;;;;;5012521;28;20133;-77
2023/01/28 13:16:56;;;;;;;5.50;3.03;;;;;;;;;;5013835;28;20507;-77
2023/01/28 13:19:23;;;;;;;7.53;3.60;;;;;;;;;;5028912;28;20046;-77
2023/01/28 13:21:49;;;;;;;5.72;3.00;;;;;;;;;;5014038;28;20050;-77
2023/01/28 13:24:15;;;;;;;6.00;3.08;;;;;;;;;;5013934;28;20046;-77
2023/01/28 13:26:43;;;;;;;7.78;3.10;;;;;;;;;;5023601;28;20040;-77
2023/01/28 13:29:21;;;;;;;4.53;3.00;;;;;;;;;;5022154;28;20073;-77
2023/01/28 13:31:49;;;;;;;5.38;3.15;;;;;;;;;;5013538;28;20038;-77
2023/01/28 13:34:33;;;;;;;5.03;2.72;;;;;;;;;;5012185;28;20052;-77
2023/01/28 13:37:04;;;;;;;4.57;3.00;;;;;;;;;;5012733;28;20046;-77
2023/01/28 13:39:30;;;;;;;5.32;3.03;;;;;;;;;;5013520;28;20378;-77
2023/01/28 13:42:08;;;;;;;5.30;3.30;;;;;;;;;;5012761;28;20052;-77
2023/01/28 13:44:35;;;;;;;6.38;3.22;;;;;;;;;;5012119;28;20057;-77
2023/01/28 13:47:07;;;;;;;5.90;3.35;;;;;;;;;;5014053;28;20161;-77
2023/01/28 13:49:43;;;;;;;4.45;2.90;;;;;;;;;;5012422;28;20046;-77
2023/01/28 13:52:25;;;;;;;4.35;3.22;;;;;;;;;;5012227;28;20050;-77
2023/01/28 13:54:54;;;;;;;5.00;3.30;;;;;;;;;;5013451;28;20050;-77
2023/01/28 13:57:38;;;;;;;5.70;3.22;;;;;;;;;;5017589;28;20050;-77
2023/01/28 14:00:07;;;;;;;5.50;3.10;;;;;;;;;;5016463;28;20045;-76
2023/01/28 14:02:33;;;;;;;5.07;3.72;;;;;;;;;;5018293;28;20061;-77
2023/01/28 14:05:19;;;;;;;8.63;3.70;;;;;;;;;;5027183;28;20123;-77
2023/01/28 14:07:52;;;;;;;4.68;2.92;;;;;;;;;;5019217;28;20046;-76
2023/01/28 14:10:21;;;;;;;3.42;2.40;;;;;;;;;;5020535;28;20046;-76
2023/01/28 14:12:47;;;;;;;8.07;4.15;;;;;;;;;;5018894;28;20053;-77
2023/01/28 14:15:34;;;;;;;7.47;4.60;;;;;;;;;;5013595;28;20046;-77
2023/01/28 14:18:00;;;;;;;4.82;3.15;;;;;;;;;;5014486;28;20042;-77
2023/01/28 14:20:30;;;;;;;8.40;2.72;;;;;;;;;;5017590;28;20058;-77
2023/01/28 14:23:01;;;;;;;4.40;2.22;;;;;;;;;;5016758;28;20125;-77
2023/01/28 14:25:33;;;;;;;6.72;2.25;;;;;;;;;;5014813;28;20407;-77
2023/01/28 14:28:00;;;;;;;8.05;3.97;;;;;;;;;;5015438;28;20041;-77
2023/01/28 14:30:40;;;;;;;5.28;3.40;;;;;;;;;;5015128;28;20408;-76
2023/01/28 14:33:08;;;;;;;6.13;3.28;;;;;;;;;;5013953;28;20378;-77
2023/01/28 14:35:37;;;;;;;5.63;2.67;;;;;;;;;;5022766;28;20061;-77
2023/01/28 14:38:13;;;;;;;5.10;2.70;;;;;;;;;;5015150;28;20108;-77
2023/01/28 14:40:40;;;;;;;6.05;2.40;;;;;;;;;;5015059;28;20139;-77
2023/01/28 14:43:07;;;;;;;3.95;2.50;;;;;;;;;;5016470;28;20480;-77
2023/01/28 14:45:48;;;;;;;5.45;2.53;;;;;;;;;;5016619;28;20049;-77
2023/01/28 14:48:37;;;;;;;5.47;3.00;;;;;;;;;;5013704;28;20060;-77
2023/01/28 14:51:06;;;;;;;6.60;3.05;;;;;;;;;;5015740;28;20669;-77
2023/01/28 14:53:50;;;;;;;5.32;2.90;;;;;;;;;;4997883;28;20404;-77
2023/01/28 14:56:19;;;;;;;4.93;3.00;;;;;;;;;;5014910;28;20049;-77
2023/01/28 14:58:49;;;;;;;3.67;2.88;;;;;;;;;;5014987;28;20053;-77
2023/01/28 15:01:19;;;;;;;5.95;2.85;;;;;;;;;;5030182;28;20137;-77
2023/01/28 15:03:45;;;;;;;5.70;2.80;;;;;;;;;;5016133;28;20080;-77
2023/01/28 15:06:12;;;;;;;4.45;2.90;;;;;;;;;;5014701;28;20130;-77
2023/01/28 15:08:38;;;;;;;4.88;2.85;;;;;;;;;;5016043;28;20448;-77
2023/01/28 15:11:05;;;;;;;4.57;2.70;;;;;;;;;;5015885;28;20123;-77
2023/01/28 15:13:33;;;;;;;4.88;2.70;;;;;;;;;;5014702;28;20053;-77
2023/01/28 15:16:00;;;;;;;4.60;3.22;;;;;;;;;;5014229;28;20046;-77
2023/01/28 15:18:42;;;;;;;6.60;3.22;;;;;;;;;;5016009;28;20053;-77
2023/01/28 15:21:09;;;;;;;7.35;3.97;;;;;;;;;;5015944;28;20046;-77
2023/01/28 15:23:39;;;;;;;6.53;3.72;;;;;;;;;;5015946;28;20050;-77
2023/01/28 15:26:06;;;;;;;6.28;4.15;;;;;;;;;;5015817;28;20041;-77
2023/01/28 15:28:33;;;;;;;9.13;3.78;;;;;;;;;;5014071;28;20046;-77